createdAt,value
2023-03-12T00:00:04.544Z,3.41
2023-03-12T00:02:35.889Z,0.82
2023-03-12T00:05:02.931Z,2.81
2023-03-12T00:07:29.603Z,3.32
2023-03-12T00:09:56.561Z,5.93
2023-03-12T00:12:23.259Z,5.53
2023-03-12T00:14:50.357Z,4.26
2023-03-12T00:17:17.087Z,4.40
2023-03-12T00:19:45.305Z,6.77
2023-03-12T00:22:12.069Z,6.32
2023-03-12T00:24:39.301Z,4.88
2023-03-12T00:27:07.245Z,4.11
2023-03-12T00:29:34.066Z,5.91
2023-03-12T00:32:00.932Z,6.55
2023-03-12T00:34:27.718Z,5.35
2023-03-12T00:36:54.871Z,6.06
2023-03-12T00:39:22.118Z,6.96
2023-03-12T00:41:48.812Z,5.88
2023-03-12T00:44:15.649Z,5.67
2023-03-12T00:46:42.391Z,5.35
2023-03-12T00:49:09.487Z,4.84
2023-03-12T00:51:36.290Z,4.49
2023-03-12T00:54:03.032Z,5.78
2023-03-12T00:56:30.024Z,5.28
2023-03-12T00:58:56.861Z,5.73
2023-03-12T01:01:23.656Z,5.41
2023-03-12T01:03:54.539Z,4.32
2023-03-12T01:06:21.570Z,4.92
2023-03-12T01:08:48.470Z,5.52
2023-03-12T01:11:20.986Z,4.25
2023-03-12T01:13:48.330Z,4.61
2023-03-12T01:16:15.556Z,4.76
2023-03-12T01:18:42.267Z,6.05
2023-03-12T01:21:09.439Z,2.29
2023-03-12T01:23:37.637Z,3.38
2023-03-12T01:26:04.505Z,3.87
2023-03-12T01:28:31.826Z,3.37
2023-03-12T01:30:58.593Z,4.71
2023-03-12T01:33:25.853Z,4.69
2023-03-12T01:35:52.804Z,4.18
2023-03-12T01:38:21.006Z,4.07
2023-03-12T01:40:48.046Z,3.85
2023-03-12T01:43:28.611Z,3.36
2023-03-12T01:46:06.182Z,4.34
2023-03-12T01:48:42.017Z,5.83
2023-03-12T01:51:12.606Z,2.85
2023-03-12T01:53:43.035Z,2.27
2023-03-12T01:56:11.247Z,3.00
2023-03-12T01:58:42.507Z,4.04
2023-03-12T02:01:09.349Z,4.70
2023-03-12T02:03:37.227Z,4.60
2023-03-12T02:06:11.879Z,3.92
2023-03-12T02:08:44.062Z,3.29
2023-03-12T02:11:12.129Z,1.78
2023-03-12T02:13:40.472Z,3.81
2023-03-12T02:16:09.849Z,2.84
2023-03-12T02:18:36.877Z,3.38
2023-03-12T02:21:34.143Z,3.11
2023-03-12T02:24:09.413Z,2.41
2023-03-12T02:26:38.694Z,3.38
2023-03-12T02:29:09.010Z,3.20
2023-03-12T02:31:43.739Z,3.37
2023-03-12T02:34:11.413Z,4.14
2023-03-12T02:36:38.197Z,4.98
2023-03-12T02:39:05.931Z,5.03
2023-03-12T02:41:44.402Z,4.17
2023-03-12T02:44:25.655Z,2.75
2023-03-12T02:46:55.619Z,2.08
2023-03-12T02:49:25.696Z,2.04
2023-03-12T02:51:53.079Z,3.13
2023-03-12T02:54:21.839Z,3.57
2023-03-12T02:56:49.592Z,4.05
2023-03-12T02:59:17.919Z,2.18
2023-03-12T03:01:45.511Z,2.57
2023-03-12T03:04:13.576Z,2.57
2023-03-12T03:06:43.113Z,3.46
2023-03-12T03:09:10.848Z,3.67
2023-03-12T03:11:37.566Z,4.30
2023-03-12T03:14:07.034Z,2.78
2023-03-12T03:16:34.899Z,2.77
2023-03-12T03:19:01.883Z,2.55
2023-03-12T03:21:29.799Z,4.00
2023-03-12T03:23:57.183Z,3.55
2023-03-12T03:26:25.110Z,4.29
2023-03-12T03:28:53.471Z,4.77
2023-03-12T03:31:20.577Z,3.61
2023-03-12T03:33:48.223Z,0.07
2023-03-12T03:36:16.164Z,2.90
2023-03-12T03:38:59.444Z,3.42
2023-03-12T03:41:27.170Z,4.96
2023-03-12T03:43:58.948Z,3.46
2023-03-12T03:46:27.444Z,1.95
2023-03-12T03:48:59.990Z,3.57
2023-03-12T03:51:28.199Z,4.88
2023-03-12T03:54:00.558Z,5.06
2023-03-12T03:56:29.001Z,3.99
2023-03-12T03:58:58.550Z,1.17
2023-03-12T04:01:26.632Z,3.39
2023-03-12T04:03:55.147Z,2.04
2023-03-12T04:06:21.966Z,4.57
2023-03-12T04:08:48.788Z,3.71
2023-03-12T04:11:19.967Z,4.24
2023-03-12T04:13:47.149Z,2.35
2023-03-12T04:16:16.853Z,3.80
2023-03-12T04:18:44.310Z,4.08
2023-03-12T04:21:13.630Z,3.26
2023-03-12T04:23:41.653Z,4.60
2023-03-12T04:26:09.942Z,3.13
2023-03-12T04:28:38.208Z,4.35
2023-03-12T04:31:08.334Z,1.93
2023-03-12T04:33:40.920Z,3.91
2023-03-12T04:36:11.676Z,3.76
2023-03-12T04:38:40.545Z,4.32
2023-03-12T04:41:15.663Z,1.19
2023-03-12T04:44:10.894Z,3.27
2023-03-12T04:46:40.083Z,3.78
2023-03-12T04:49:07.524Z,2.43
2023-03-12T04:51:36.437Z,1.88
2023-03-12T04:54:04.627Z,4.28
2023-03-12T04:56:32.120Z,5.64
2023-03-12T04:58:59.411Z,5.33
2023-03-12T05:01:33.611Z,4.41
2023-03-12T05:04:04.195Z,4.26
2023-03-12T05:06:31.271Z,5.11
2023-03-12T05:08:58.332Z,2.08
2023-03-12T05:11:25.408Z,3.76
2023-03-12T05:13:52.209Z,3.95
2023-03-12T05:16:19.572Z,1.82
2023-03-12T05:18:47.382Z,1.36
2023-03-12T05:21:18.568Z,2.89
2023-03-12T05:23:46.531Z,1.85
2023-03-12T05:26:20.236Z,3.35
2023-03-12T05:28:47.469Z,1.81
2023-03-12T05:31:15.983Z,4.30
2023-03-12T05:33:44.292Z,4.75
2023-03-12T05:36:12.428Z,3.54
2023-03-12T05:38:39.806Z,2.38
2023-03-12T05:41:07.396Z,2.06
2023-03-12T05:43:36.617Z,2.56
2023-03-12T05:46:05.014Z,2.56
2023-03-12T05:48:36.636Z,3.11
2023-03-12T05:51:04.105Z,1.89
2023-03-12T05:53:33.100Z,4.65
2023-03-12T05:56:06.021Z,3.18
2023-03-12T05:58:34.536Z,5.36
2023-03-12T06:01:02.343Z,3.27
2023-03-12T06:03:29.534Z,3.36
2023-03-12T06:05:57.521Z,3.26
2023-03-12T06:08:24.725Z,4.32
2023-03-12T06:10:53.416Z,3.80
2023-03-12T06:13:21.032Z,2.36
2023-03-12T06:15:48.212Z,3.84
2023-03-12T06:18:15.831Z,3.74
2023-03-12T06:20:43.698Z,4.62
2023-03-12T06:23:10.914Z,3.22
2023-03-12T06:25:37.786Z,5.06
2023-03-12T06:28:04.807Z,7.45
2023-03-12T06:30:32.082Z,4.39
2023-03-12T06:32:59.786Z,5.24
2023-03-12T06:35:27.875Z,6.47
2023-03-12T06:37:55.052Z,6.01
2023-03-12T06:40:21.953Z,3.36
2023-03-12T06:42:48.830Z,4.81
2023-03-12T06:45:15.614Z,3.61
2023-03-12T06:47:42.945Z,5.00
2023-03-12T06:50:10.417Z,3.00
2023-03-12T06:52:37.104Z,5.26
2023-03-12T06:55:04.195Z,6.22
2023-03-12T06:57:30.896Z,3.76
2023-03-12T06:59:58.082Z,3.25
2023-03-12T07:02:25.694Z,5.28
2023-03-12T07:04:52.503Z,5.82
2023-03-12T07:07:20.137Z,3.38
2023-03-12T07:09:46.937Z,6.68
2023-03-12T07:12:14.303Z,6.38
2023-03-12T07:14:41.041Z,3.25
2023-03-12T07:17:07.685Z,6.11
2023-03-12T07:19:34.440Z,3.60
2023-03-12T07:22:01.340Z,5.32
2023-03-12T07:24:28.392Z,5.84
2023-03-12T07:26:55.628Z,7.00
2023-03-12T07:29:22.331Z,3.74
2023-03-12T07:31:49.012Z,7.58
2023-03-12T07:34:16.008Z,7.97
2023-03-12T07:36:43.307Z,5.71
2023-03-12T07:39:10.138Z,5.79
2023-03-12T07:41:39.066Z,6.34
2023-03-12T07:44:06.477Z,6.99
2023-03-12T07:46:33.279Z,7.28
2023-03-12T07:49:01.020Z,5.01
2023-03-12T07:51:27.998Z,8.17
2023-03-12T07:53:55.347Z,8.38
2023-03-12T07:56:22.471Z,4.08
2023-03-12T07:58:49.340Z,7.57
2023-03-12T08:01:16.191Z,7.58
2023-03-12T08:03:43.575Z,5.76
2023-03-12T08:06:10.450Z,4.86
2023-03-12T08:08:41.667Z,5.41
2023-03-12T08:11:09.393Z,6.50
2023-03-12T08:13:36.261Z,4.91
2023-03-12T08:16:03.633Z,5.02
2023-03-12T08:18:31.179Z,7.60
2023-03-12T08:20:57.912Z,4.19
2023-03-12T08:23:25.016Z,4.95
2023-03-12T08:25:52.187Z,4.44
2023-03-12T08:28:19.845Z,5.02
2023-03-12T08:30:48.492Z,7.70
2023-03-12T08:33:16.991Z,7.03
2023-03-12T08:35:45.342Z,4.74
2023-03-12T08:38:12.492Z,6.02
2023-03-12T08:40:39.431Z,5.89
2023-03-12T08:43:07.658Z,6.31
2023-03-12T08:45:36.453Z,5.25
2023-03-12T08:48:04.683Z,9.62
2023-03-12T08:50:32.266Z,6.68
2023-03-12T08:53:00.574Z,8.06
2023-03-12T08:55:30.589Z,5.24
2023-03-12T08:57:57.650Z,6.95
2023-03-12T09:00:25.266Z,3.64
2023-03-12T09:02:53.677Z,6.24
2023-03-12T09:05:20.892Z,7.30
2023-03-12T09:07:47.887Z,7.88
2023-03-12T09:10:15.602Z,7.86
2023-03-12T09:12:42.323Z,4.12
2023-03-12T09:15:09.892Z,9.09
2023-03-12T09:17:37.573Z,6.23
2023-03-12T09:20:09.695Z,7.01
2023-03-12T09:22:37.468Z,5.96
2023-03-12T09:25:05.522Z,7.73
2023-03-12T09:27:39.889Z,8.44
2023-03-12T09:30:09.156Z,9.17
2023-03-12T09:32:36.324Z,8.11
2023-03-12T09:35:03.186Z,6.20
2023-03-12T09:37:32.292Z,6.66
2023-03-12T09:39:59.594Z,8.41
2023-03-12T09:42:49.859Z,5.79
2023-03-12T09:45:22.948Z,7.93
2023-03-12T09:47:54.012Z,8.41
2023-03-12T09:50:23.763Z,7.31
2023-03-12T09:53:04.772Z,7.75
2023-03-12T09:55:46.237Z,9.17
2023-03-12T09:58:26.049Z,8.27
2023-03-12T10:01:24.096Z,7.95
2023-03-12T10:04:06.061Z,9.58
2023-03-12T10:06:42.885Z,6.80
2023-03-12T10:09:31.303Z,7.31
2023-03-12T10:12:01.272Z,7.60
2023-03-12T10:14:34.358Z,5.86
2023-03-12T10:17:26.929Z,7.29
2023-03-12T10:20:31.363Z,7.37
2023-03-12T10:23:07.769Z,6.77
2023-03-12T10:25:56.610Z,5.88
2023-03-12T10:28:36.242Z,6.73
2023-03-12T10:31:07.202Z,6.70
2023-03-12T10:33:43.025Z,6.06
2023-03-12T10:36:17.185Z,5.81
2023-03-12T10:38:43.945Z,5.47
2023-03-12T10:41:21.926Z,5.88
2023-03-12T10:43:48.781Z,5.17
2023-03-12T10:46:15.569Z,8.33
2023-03-12T10:48:43.940Z,9.25
2023-03-12T10:51:13.060Z,8.47
2023-03-12T10:53:45.332Z,7.70
2023-03-12T10:56:15.452Z,6.28
2023-03-12T10:58:51.022Z,6.17
2023-03-12T11:01:28.574Z,6.75
2023-03-12T11:04:19.145Z,5.95
2023-03-12T11:07:16.839Z,7.49
2023-03-12T11:09:43.808Z,8.44
2023-03-12T11:12:24.422Z,8.15
2023-03-12T11:14:51.179Z,7.90
2023-03-12T11:17:29.106Z,6.50
2023-03-12T11:19:55.917Z,7.77
2023-03-12T11:22:33.137Z,7.28
2023-03-12T11:25:06.108Z,8.90
2023-03-12T11:27:55.387Z,9.61
2023-03-12T11:30:29.629Z,10.31
2023-03-12T11:32:58.154Z,9.69
2023-03-12T11:35:52.963Z,8.26
2023-03-12T11:38:25.950Z,8.62
2023-03-12T11:41:26.288Z,7.55
2023-03-12T11:44:37.892Z,11.01
2023-03-12T11:47:28.630Z,12.45
2023-03-12T11:50:04.343Z,12.23
2023-03-12T11:53:04.324Z,9.23
2023-03-12T11:55:46.318Z,14.32
2023-03-12T11:58:25.675Z,6.84
2023-03-12T12:01:08.541Z,7.27
2023-03-12T12:04:10.058Z,10.91
2023-03-12T12:06:52.795Z,11.11
2023-03-12T12:09:37.479Z,14.10
2023-03-12T12:12:27.586Z,10.05
2023-03-12T12:15:06.262Z,10.51
2023-03-12T12:18:04.819Z,10.18
2023-03-12T12:20:43.481Z,8.88
2023-03-12T12:23:25.493Z,10.74
2023-03-12T12:25:55.034Z,8.87
2023-03-12T12:28:48.589Z,9.48
2023-03-12T12:31:44.920Z,12.60
2023-03-12T12:34:20.925Z,12.71
2023-03-12T12:37:15.734Z,14.48
2023-03-12T12:39:48.586Z,12.66
2023-03-12T12:42:24.731Z,9.96
2023-03-12T12:44:53.929Z,9.82
2023-03-12T12:50:13.230Z,10.56
2023-03-12T12:52:40.767Z,8.72
2023-03-12T12:55:31.578Z,13.74
2023-03-12T12:58:12.285Z,12.63
2023-03-12T13:00:41.929Z,12.75
2023-03-12T13:03:15.480Z,11.14
2023-03-12T13:05:47.752Z,11.32
2023-03-12T13:08:55.421Z,11.61
2023-03-12T13:11:43.081Z,12.28
2023-03-12T13:14:09.753Z,13.88
2023-03-12T13:16:42.989Z,12.60
2023-03-12T13:19:16.003Z,13.38
2023-03-12T13:21:54.136Z,15.03
2023-03-12T13:24:29.179Z,13.01
2023-03-12T13:27:23.553Z,12.41
2023-03-12T13:29:57.389Z,13.17
2023-03-12T13:32:50.289Z,11.01
2023-03-12T13:35:17.046Z,12.94
2023-03-12T13:37:47.055Z,12.70
2023-03-12T13:40:38.687Z,14.22
2023-03-12T13:43:08.388Z,14.46
2023-03-12T13:45:55.734Z,12.51
2023-03-12T13:48:24.371Z,11.43
2023-03-12T13:50:57.634Z,13.41
2023-03-12T13:53:34.878Z,12.62
2023-03-12T13:56:05.651Z,13.17
2023-03-12T13:58:50.347Z,12.95
2023-03-12T14:01:20.705Z,12.61
2023-03-12T14:03:58.825Z,14.27
2023-03-12T14:06:30.329Z,14.83
2023-03-12T14:09:03.598Z,14.21
2023-03-12T14:11:55.345Z,14.84
2023-03-12T14:14:41.350Z,13.38
2023-03-12T14:17:36.492Z,13.10
2023-03-12T14:20:14.365Z,12.66
2023-03-12T14:22:44.939Z,13.46
2023-03-12T14:25:22.526Z,13.18
2023-03-12T14:27:50.000Z,14.32
2023-03-12T14:30:23.594Z,12.78
2023-03-12T14:32:55.607Z,14.09
2023-03-12T14:35:37.411Z,14.15
2023-03-12T14:38:41.392Z,14.54
2023-03-12T14:41:19.978Z,13.48
2023-03-12T14:43:52.279Z,12.03
2023-03-12T14:46:24.496Z,13.19
2023-03-12T14:48:55.000Z,14.27
2023-03-12T14:51:25.358Z,12.95
2023-03-12T14:53:53.198Z,13.78
2023-03-12T14:56:33.857Z,14.19
2023-03-12T14:59:20.064Z,14.61
2023-03-12T15:01:47.959Z,12.83
2023-03-12T15:04:20.166Z,11.52
2023-03-12T15:06:54.306Z,12.04
2023-03-12T15:09:28.343Z,12.44
2023-03-12T15:12:01.311Z,12.89
2023-03-12T15:14:34.178Z,10.20
2023-03-12T15:17:03.034Z,11.65
2023-03-12T15:19:35.301Z,9.93
2023-03-12T15:22:04.060Z,10.56
2023-03-12T15:24:37.982Z,11.79
2023-03-12T15:27:28.689Z,13.81
2023-03-12T15:29:57.710Z,13.54
2023-03-12T15:32:26.122Z,13.53
2023-03-12T15:34:54.635Z,12.03
2023-03-12T15:37:41.144Z,8.11
2023-03-12T15:40:24.098Z,10.83
2023-03-12T15:42:51.348Z,11.01
2023-03-12T15:45:21.729Z,11.34
2023-03-12T15:47:51.341Z,10.70
2023-03-12T15:50:32.080Z,10.94
2023-03-12T15:53:25.578Z,13.07
2023-03-12T15:56:19.432Z,13.23
2023-03-12T15:58:46.735Z,10.79
2023-03-12T16:01:18.726Z,10.96
2023-03-12T16:03:46.599Z,11.98
2023-03-12T16:06:16.358Z,11.04
2023-03-12T16:08:53.091Z,10.01
2023-03-12T16:11:23.593Z,9.56
2023-03-12T16:13:54.813Z,9.67
2023-03-12T16:16:21.671Z,10.68
2023-03-12T16:18:48.665Z,8.35
2023-03-12T16:21:15.400Z,8.66
2023-03-12T16:23:42.102Z,8.69
2023-03-12T16:26:08.904Z,10.19
2023-03-12T16:31:03.751Z,10.61
2023-03-12T16:33:30.565Z,9.56
2023-03-12T16:35:57.887Z,9.98
2023-03-12T16:38:24.754Z,10.96
2023-03-12T16:40:52.827Z,11.45
2023-03-12T16:43:23.394Z,11.57
2023-03-12T16:45:52.479Z,11.37
2023-03-12T16:48:23.129Z,10.58
2023-03-12T16:50:59.909Z,10.76
2023-03-12T16:53:27.081Z,9.87
2023-03-12T16:55:56.915Z,10.89
2023-03-12T16:58:25.904Z,9.31
2023-03-12T17:00:54.471Z,12.04
2023-03-12T17:03:37.365Z,12.23
2023-03-12T17:06:07.061Z,11.98
2023-03-12T17:08:36.353Z,10.30
2023-03-12T17:11:12.352Z,10.21
2023-03-12T17:13:39.183Z,11.05
2023-03-12T17:16:07.337Z,10.80
2023-03-12T17:18:34.298Z,10.83
2023-03-12T17:21:01.617Z,12.29
2023-03-12T17:23:28.645Z,11.28
2023-03-12T17:25:55.653Z,11.78
2023-03-12T17:28:22.446Z,10.96
2023-03-12T17:30:49.423Z,10.75
2023-03-12T17:33:18.246Z,11.98
2023-03-12T17:35:45.886Z,11.75
2023-03-12T17:38:13.176Z,10.62
2023-03-12T17:40:44.645Z,10.58
2023-03-12T17:43:11.921Z,11.05
2023-03-12T17:45:38.810Z,10.99
2023-03-12T17:48:07.006Z,9.82
2023-03-12T17:50:34.161Z,11.78
2023-03-12T17:53:01.349Z,10.71
2023-03-12T17:55:28.152Z,11.95
2023-03-12T17:57:54.915Z,12.25
2023-03-12T18:00:23.134Z,10.29
2023-03-12T18:02:50.947Z,12.84
2023-03-12T18:05:17.968Z,12.14
2023-03-12T18:07:47.397Z,12.08
2023-03-12T18:10:14.810Z,11.99
2023-03-12T18:12:41.624Z,10.37
2023-03-12T18:15:11.174Z,11.61
2023-03-12T18:17:38.194Z,11.72
2023-03-12T18:20:09.715Z,12.14
2023-03-12T18:22:38.450Z,12.26
2023-03-12T18:25:07.393Z,12.01
2023-03-12T18:27:34.676Z,13.25
2023-03-12T18:30:02.682Z,12.48
2023-03-12T18:32:29.568Z,13.31
2023-03-12T18:34:56.874Z,12.94
2023-03-12T18:37:23.631Z,11.77
2023-03-12T18:39:52.928Z,11.19
2023-03-12T18:42:22.379Z,11.24
2023-03-12T18:44:51.978Z,12.04
2023-03-12T18:47:19.291Z,11.54
2023-03-12T18:49:53.098Z,8.75
2023-03-12T18:52:21.466Z,8.39
2023-03-12T18:54:48.244Z,11.84
2023-03-12T18:57:15.349Z,10.00
2023-03-12T18:59:45.503Z,8.46
2023-03-12T19:02:12.534Z,10.60
2023-03-12T19:04:39.586Z,10.75
2023-03-12T19:07:08.264Z,11.38
2023-03-12T19:09:35.446Z,10.22
2023-03-12T19:12:02.811Z,11.08
2023-03-12T19:14:30.406Z,11.15
2023-03-12T19:16:57.646Z,10.09
2023-03-12T19:19:24.874Z,10.32
2023-03-12T19:21:52.721Z,10.38
2023-03-12T19:24:19.562Z,12.49
2023-03-12T19:26:46.298Z,11.12
2023-03-12T19:29:15.184Z,10.92
2023-03-12T19:31:43.232Z,10.36
2023-03-12T19:34:10.190Z,11.52
2023-03-12T19:36:38.446Z,12.18
2023-03-12T19:39:15.262Z,8.86
2023-03-12T19:41:47.640Z,12.43
2023-03-12T19:44:14.362Z,9.91
2023-03-12T19:46:43.255Z,10.69
2023-03-12T19:49:10.320Z,8.72
2023-03-12T19:51:40.257Z,10.26
2023-03-12T19:54:08.244Z,9.10
2023-03-12T19:56:35.031Z,10.63
2023-03-12T19:59:02.641Z,9.95
2023-03-12T20:01:29.332Z,10.28
2023-03-12T20:03:56.069Z,7.99
2023-03-12T20:06:23.345Z,10.26
2023-03-12T20:08:50.176Z,8.08
2023-03-12T20:11:17.368Z,9.98
2023-03-12T20:13:45.249Z,7.51
2023-03-12T20:16:13.909Z,10.64
2023-03-12T20:18:40.739Z,11.51
2023-03-12T20:21:08.450Z,9.99
2023-03-12T20:23:35.364Z,11.64
2023-03-12T20:26:02.602Z,10.92
2023-03-12T20:28:29.601Z,9.22
2023-03-12T20:30:56.362Z,8.43
2023-03-12T20:33:23.708Z,8.42
2023-03-12T20:35:50.642Z,8.67
2023-03-12T20:38:18.926Z,10.70
2023-03-12T20:40:46.488Z,8.63
2023-03-12T20:43:13.277Z,8.78
2023-03-12T20:45:40.126Z,6.79
2023-03-12T20:48:07.701Z,7.21
2023-03-12T20:50:39.345Z,10.05
2023-03-12T20:53:07.639Z,8.82
2023-03-12T20:55:34.389Z,9.11
2023-03-12T20:58:01.134Z,8.77
2023-03-12T21:00:28.117Z,7.05
2023-03-12T21:02:54.818Z,8.12
2023-03-12T21:05:24.920Z,7.82
2023-03-12T21:07:54.048Z,9.35
2023-03-12T21:10:23.505Z,8.36
2023-03-12T21:12:50.395Z,9.74
2023-03-12T21:15:17.134Z,9.49
2023-03-12T21:17:43.858Z,7.40
2023-03-12T21:20:18.858Z,8.14
2023-03-12T21:22:47.005Z,9.52
2023-03-12T21:25:14.056Z,8.25
2023-03-12T21:27:50.493Z,8.32
2023-03-12T21:30:19.220Z,9.83
2023-03-12T21:32:46.212Z,9.12
2023-03-12T21:35:13.033Z,9.27
2023-03-12T21:37:40.028Z,8.51
2023-03-12T21:40:09.195Z,7.93
2023-03-12T21:42:35.976Z,10.95
2023-03-12T21:45:03.466Z,11.24
2023-03-12T21:47:30.384Z,8.99
2023-03-12T21:49:57.319Z,9.95
2023-03-12T21:52:24.277Z,9.64
2023-03-12T21:54:51.019Z,9.67
2023-03-12T21:57:17.719Z,9.72
2023-03-12T21:59:44.499Z,9.26
2023-03-12T22:02:12.954Z,9.02
2023-03-12T22:04:39.972Z,9.56
2023-03-12T22:07:08.117Z,9.19
2023-03-12T22:09:34.861Z,7.40
2023-03-12T22:12:01.871Z,11.10
2023-03-12T22:14:28.987Z,8.77
2023-03-12T22:16:55.859Z,10.02
2023-03-12T22:19:24.325Z,9.86
2023-03-12T22:21:51.087Z,11.05
2023-03-12T22:24:17.787Z,8.31
2023-03-12T22:26:45.908Z,8.77
2023-03-12T22:29:12.788Z,8.90
2023-03-12T22:31:39.764Z,6.57
2023-03-12T22:34:06.516Z,8.11
2023-03-12T22:36:33.716Z,9.14
2023-03-12T22:39:00.477Z,9.83
2023-03-12T22:41:29.322Z,8.96
2023-03-12T22:44:01.375Z,8.62
2023-03-12T22:46:28.764Z,6.76
2023-03-12T22:48:57.633Z,9.14
2023-03-12T22:51:25.633Z,8.14
2023-03-12T22:53:53.540Z,7.49
2023-03-12T22:56:20.516Z,8.30
2023-03-12T22:58:48.055Z,7.59
2023-03-12T23:01:20.296Z,6.87
2023-03-12T23:03:47.290Z,6.10
2023-03-12T23:06:29.879Z,7.60
2023-03-12T23:08:57.252Z,7.82
2023-03-12T23:11:26.801Z,8.06
2023-03-12T23:13:54.904Z,7.15
2023-03-12T23:16:24.329Z,7.79
2023-03-12T23:18:51.780Z,7.07
2023-03-12T23:21:21.042Z,7.43
2023-03-12T23:23:49.197Z,10.30
2023-03-12T23:26:22.385Z,6.74
2023-03-12T23:28:53.837Z,8.05
2023-03-12T23:31:21.605Z,7.63
2023-03-12T23:33:48.595Z,7.91
2023-03-12T23:36:18.333Z,9.43
2023-03-12T23:38:46.631Z,8.28
2023-03-12T23:41:21.992Z,9.24
2023-03-12T23:43:49.413Z,10.04
2023-03-12T23:46:17.194Z,9.98
2023-03-12T23:48:45.716Z,8.32
2023-03-12T23:51:18.413Z,8.59
2023-03-12T23:53:47.128Z,8.86
2023-03-12T23:56:17.521Z,8.29
2023-03-12T23:58:45.315Z,8.75
